sensor_id;sensor_type;location;lat;lon;timestamp;temperature;humidity
28297;DHT22;62078;49.366;8.172;2022-12-24T00:02:16;17.60;61.00
28297;DHT22;62078;49.366;8.172;2022-12-24T00:04:42;17.60;61.00
28297;DHT22;62078;49.366;8.172;2022-12-24T00:07:08;17.60;61.00
28297;DHT22;62078;49.366;8.172;2022-12-24T00:09:33;17.60;60.90
28297;DHT22;62078;49.366;8.172;2022-12-24T00:11:59;17.60;60.90
28297;DHT22;62078;49.366;8.172;2022-12-24T00:14:25;17.60;60.90
28297;DHT22;62078;49.366;8.172;2022-12-24T00:16:50;17.60;60.80
28297;DHT22;62078;49.366;8.172;2022-12-24T00:19:16;17.60;60.80
28297;DHT22;62078;49.366;8.172;2022-12-24T00:21:42;17.60;61.00
28297;DHT22;62078;49.366;8.172;2022-12-24T00:24:07;17.60;60.90
28297;DHT22;62078;49.366;8.172;2022-12-24T00:26:34;17.60;60.80
28297;DHT22;62078;49.366;8.172;2022-12-24T00:28:59;17.60;60.90
28297;DHT22;62078;49.366;8.172;2022-12-24T00:31:25;17.60;60.80
28297;DHT22;62078;49.366;8.172;2022-12-24T00:33:51;17.60;60.80
28297;DHT22;62078;49.366;8.172;2022-12-24T00:36:18;17.60;60.80
28297;DHT22;62078;49.366;8.172;2022-12-24T00:38:44;17.60;60.80
28297;DHT22;62078;49.366;8.172;2022-12-24T00:41:10;17.60;60.70
28297;DHT22;62078;49.366;8.172;2022-12-24T00:44:03;17.60;60.80
28297;DHT22;62078;49.366;8.172;2022-12-24T00:46:36;17.60;60.80
28297;DHT22;62078;49.366;8.172;2022-12-24T00:49:03;17.50;60.60
28297;DHT22;62078;49.366;8.172;2022-12-24T00:51:29;17.60;60.70
28297;DHT22;62078;49.366;8.172;2022-12-24T00:53:55;17.60;60.70
28297;DHT22;62078;49.366;8.172;2022-12-24T00:56:21;17.60;60.60
28297;DHT22;62078;49.366;8.172;2022-12-24T00:58:47;17.60;60.60
28297;DHT22;62078;49.366;8.172;2022-12-24T01:01:12;17.50;60.60
28297;DHT22;62078;49.366;8.172;2022-12-24T01:03:38;17.50;60.60
28297;DHT22;62078;49.366;8.172;2022-12-24T01:06:15;17.50;60.50
28297;DHT22;62078;49.366;8.172;2022-12-24T01:08:41;17.50;60.40
28297;DHT22;62078;49.366;8.172;2022-12-24T01:11:08;17.50;60.50
28297;DHT22;62078;49.366;8.172;2022-12-24T01:13:35;17.50;60.40
28297;DHT22;62078;49.366;8.172;2022-12-24T01:16:01;17.50;60.40
28297;DHT22;62078;49.366;8.172;2022-12-24T01:18:27;17.50;60.60
28297;DHT22;62078;49.366;8.172;2022-12-24T01:20:57;17.50;60.50
28297;DHT22;62078;49.366;8.172;2022-12-24T01:23:23;17.50;60.50
28297;DHT22;62078;49.366;8.172;2022-12-24T01:25:49;17.50;60.40
28297;DHT22;62078;49.366;8.172;2022-12-24T01:28:15;17.50;60.50
28297;DHT22;62078;49.366;8.172;2022-12-24T01:30:41;17.50;60.50
28297;DHT22;62078;49.366;8.172;2022-12-24T01:33:06;17.50;60.40
28297;DHT22;62078;49.366;8.172;2022-12-24T01:35:32;17.50;60.40
28297;DHT22;62078;49.366;8.172;2022-12-24T01:37:58;17.50;60.40
28297;DHT22;62078;49.366;8.172;2022-12-24T01:40:25;17.50;60.40
28297;DHT22;62078;49.366;8.172;2022-12-24T01:43:18;17.50;60.40
28297;DHT22;62078;49.366;8.172;2022-12-24T01:46:00;17.50;60.40
28297;DHT22;62078;49.366;8.172;2022-12-24T01:48:48;17.50;60.40
28297;DHT22;62078;49.366;8.172;2022-12-24T01:51:38;17.50;60.30
28297;DHT22;62078;49.366;8.172;2022-12-24T01:54:11;17.50;60.20
28297;DHT22;62078;49.366;8.172;2022-12-24T01:56:43;17.50;60.20
28297;DHT22;62078;49.366;8.172;2022-12-24T01:59:12;17.50;60.40
28297;DHT22;62078;49.366;8.172;2022-12-24T02:01:39;17.40;60.30
28297;DHT22;62078;49.366;8.172;2022-12-24T02:04:33;17.50;60.40
28297;DHT22;62078;49.366;8.172;2022-12-24T02:07:00;17.40;60.20
28297;DHT22;62078;49.366;8.172;2022-12-24T02:09:26;17.40;60.30
28297;DHT22;62078;49.366;8.172;2022-12-24T02:11:52;17.40;60.30
28297;DHT22;62078;49.366;8.172;2022-12-24T02:14:18;17.40;60.30
28297;DHT22;62078;49.366;8.172;2022-12-24T02:24:58;17.40;60.20
28297;DHT22;62078;49.366;8.172;2022-12-24T02:30:30;17.40;60.20
28297;DHT22;62078;49.366;8.172;2022-12-24T02:35:47;17.40;60.30
28297;DHT22;62078;49.366;8.172;2022-12-24T02:38:37;17.40;60.20
28297;DHT22;62078;49.366;8.172;2022-12-24T02:41:19;17.40;60.20
28297;DHT22;62078;49.366;8.172;2022-12-24T02:43:49;17.40;60.30
28297;DHT22;62078;49.366;8.172;2022-12-24T02:46:21;17.40;60.20
28297;DHT22;62078;49.366;8.172;2022-12-24T02:48:48;17.30;60.10
28297;DHT22;62078;49.366;8.172;2022-12-24T02:51:14;17.40;60.30
28297;DHT22;62078;49.366;8.172;2022-12-24T02:53:40;17.40;60.20
28297;DHT22;62078;49.366;8.172;2022-12-24T02:56:36;17.30;60.20
28297;DHT22;62078;49.366;8.172;2022-12-24T03:07:22;17.30;60.20
28297;DHT22;62078;49.366;8.172;2022-12-24T03:12:46;17.30;60.30
28297;DHT22;62078;49.366;8.172;2022-12-24T03:15:15;17.30;60.20
28297;DHT22;62078;49.366;8.172;2022-12-24T03:17:45;17.30;60.30
28297;DHT22;62078;49.366;8.172;2022-12-24T03:20:16;17.30;60.30
28297;DHT22;62078;49.366;8.172;2022-12-24T03:22:43;17.30;60.40
28297;DHT22;62078;49.366;8.172;2022-12-24T03:25:09;17.30;60.20
28297;DHT22;62078;49.366;8.172;2022-12-24T03:27:35;17.30;60.30
28297;DHT22;62078;49.366;8.172;2022-12-24T03:30:08;17.30;60.20
28297;DHT22;62078;49.366;8.172;2022-12-24T03:32:35;17.30;60.10
28297;DHT22;62078;49.366;8.172;2022-12-24T03:35:00;17.30;60.30
28297;DHT22;62078;49.366;8.172;2022-12-24T03:37:26;17.30;60.10
28297;DHT22;62078;49.366;8.172;2022-12-24T03:39:52;17.30;60.40
28297;DHT22;62078;49.366;8.172;2022-12-24T03:42:18;17.30;60.30
28297;DHT22;62078;49.366;8.172;2022-12-24T03:44:44;17.30;60.30
28297;DHT22;62078;49.366;8.172;2022-12-24T03:47:09;17.30;60.00
28297;DHT22;62078;49.366;8.172;2022-12-24T03:49:35;17.30;60.20
28297;DHT22;62078;49.366;8.172;2022-12-24T03:52:01;17.30;60.50
28297;DHT22;62078;49.366;8.172;2022-12-24T03:54:26;17.30;60.40
28297;DHT22;62078;49.366;8.172;2022-12-24T03:56:52;17.30;60.20
28297;DHT22;62078;49.366;8.172;2022-12-24T03:59:18;17.30;60.60
28297;DHT22;62078;49.366;8.172;2022-12-24T04:01:43;17.30;60.50
28297;DHT22;62078;49.366;8.172;2022-12-24T04:04:09;17.30;60.60
28297;DHT22;62078;49.366;8.172;2022-12-24T04:06:35;17.30;60.80
28297;DHT22;62078;49.366;8.172;2022-12-24T04:09:00;17.20;60.60
28297;DHT22;62078;49.366;8.172;2022-12-24T04:11:30;17.20;60.60
28297;DHT22;62078;49.366;8.172;2022-12-24T04:13:55;17.20;60.60
28297;DHT22;62078;49.366;8.172;2022-12-24T04:16:21;17.20;60.70
28297;DHT22;62078;49.366;8.172;2022-12-24T04:18:47;17.20;60.70
28297;DHT22;62078;49.366;8.172;2022-12-24T04:21:12;17.20;60.80
28297;DHT22;62078;49.366;8.172;2022-12-24T04:23:40;17.20;60.80
28297;DHT22;62078;49.366;8.172;2022-12-24T04:26:07;17.20;60.70
28297;DHT22;62078;49.366;8.172;2022-12-24T04:28:34;17.20;60.60
28297;DHT22;62078;49.366;8.172;2022-12-24T04:31:02;17.20;60.80
28297;DHT22;62078;49.366;8.172;2022-12-24T04:33:28;17.20;60.60
28297;DHT22;62078;49.366;8.172;2022-12-24T04:35:56;17.20;60.70
28297;DHT22;62078;49.366;8.172;2022-12-24T04:38:22;17.20;60.60
28297;DHT22;62078;49.366;8.172;2022-12-24T04:40:48;17.20;60.70
28297;DHT22;62078;49.366;8.172;2022-12-24T04:43:14;17.20;60.70
28297;DHT22;62078;49.366;8.172;2022-12-24T04:45:39;17.20;60.60
28297;DHT22;62078;49.366;8.172;2022-12-24T04:48:05;17.20;60.60
28297;DHT22;62078;49.366;8.172;2022-12-24T04:50:31;17.20;60.70
28297;DHT22;62078;49.366;8.172;2022-12-24T04:52:57;17.20;60.60
28297;DHT22;62078;49.366;8.172;2022-12-24T04:55:24;17.20;60.50
28297;DHT22;62078;49.366;8.172;2022-12-24T04:57:49;17.20;60.40
28297;DHT22;62078;49.366;8.172;2022-12-24T05:00:15;17.20;60.70
28297;DHT22;62078;49.366;8.172;2022-12-24T05:02:41;17.20;60.70
28297;DHT22;62078;49.366;8.172;2022-12-24T05:05:07;17.20;60.40
28297;DHT22;62078;49.366;8.172;2022-12-24T05:07:33;17.10;60.40
28297;DHT22;62078;49.366;8.172;2022-12-24T05:09:58;17.20;60.50
28297;DHT22;62078;49.366;8.172;2022-12-24T05:12:24;17.10;60.40
28297;DHT22;62078;49.366;8.172;2022-12-24T05:14:50;17.10;60.40
28297;DHT22;62078;49.366;8.172;2022-12-24T05:17:15;17.10;60.50
28297;DHT22;62078;49.366;8.172;2022-12-24T05:19:41;17.10;60.40
28297;DHT22;62078;49.366;8.172;2022-12-24T05:22:07;17.10;60.30
28297;DHT22;62078;49.366;8.172;2022-12-24T05:24:51;17.10;60.50
28297;DHT22;62078;49.366;8.172;2022-12-24T05:27:42;17.10;60.60
28297;DHT22;62078;49.366;8.172;2022-12-24T05:30:08;17.10;60.60
28297;DHT22;62078;49.366;8.172;2022-12-24T05:32:34;17.10;60.40
28297;DHT22;62078;49.366;8.172;2022-12-24T05:35:00;17.10;60.40
28297;DHT22;62078;49.366;8.172;2022-12-24T05:37:25;17.10;60.30
28297;DHT22;62078;49.366;8.172;2022-12-24T05:39:51;17.10;60.40
28297;DHT22;62078;49.366;8.172;2022-12-24T05:42:16;17.10;60.30
28297;DHT22;62078;49.366;8.172;2022-12-24T05:44:42;17.10;60.30
28297;DHT22;62078;49.366;8.172;2022-12-24T05:47:08;17.10;60.40
28297;DHT22;62078;49.366;8.172;2022-12-24T05:49:33;17.10;60.40
28297;DHT22;62078;49.366;8.172;2022-12-24T05:51:59;17.10;60.30
28297;DHT22;62078;49.366;8.172;2022-12-24T05:54:25;17.10;60.40
28297;DHT22;62078;49.366;8.172;2022-12-24T05:56:50;17.10;60.30
28297;DHT22;62078;49.366;8.172;2022-12-24T05:59:16;17.00;60.20
28297;DHT22;62078;49.366;8.172;2022-12-24T06:01:42;17.00;60.30
28297;DHT22;62078;49.366;8.172;2022-12-24T06:04:11;17.10;60.40
28297;DHT22;62078;49.366;8.172;2022-12-24T06:06:37;17.00;60.40
28297;DHT22;62078;49.366;8.172;2022-12-24T06:09:03;17.10;60.40
28297;DHT22;62078;49.366;8.172;2022-12-24T06:11:28;17.00;61.00
28297;DHT22;62078;49.366;8.172;2022-12-24T06:13:54;17.00;60.20
28297;DHT22;62078;49.366;8.172;2022-12-24T06:16:21;17.00;60.30
28297;DHT22;62078;49.366;8.172;2022-12-24T06:18:47;17.00;60.20
28297;DHT22;62078;49.366;8.172;2022-12-24T06:21:13;17.10;60.30
28297;DHT22;62078;49.366;8.172;2022-12-24T06:23:41;17.00;60.30
28297;DHT22;62078;49.366;8.172;2022-12-24T06:26:08;17.10;60.30
28297;DHT22;62078;49.366;8.172;2022-12-24T06:28:35;17.00;61.00
28297;DHT22;62078;49.366;8.172;2022-12-24T06:31:02;17.00;60.20
28297;DHT22;62078;49.366;8.172;2022-12-24T06:33:29;17.00;60.20
28297;DHT22;62078;49.366;8.172;2022-12-24T06:35:55;17.00;60.20
28297;DHT22;62078;49.366;8.172;2022-12-24T06:38:21;17.00;60.10
28297;DHT22;62078;49.366;8.172;2022-12-24T06:40:47;17.00;60.20
28297;DHT22;62078;49.366;8.172;2022-12-24T06:43:13;17.00;60.10
28297;DHT22;62078;49.366;8.172;2022-12-24T06:45:43;17.00;60.10
28297;DHT22;62078;49.366;8.172;2022-12-24T06:48:09;17.00;60.10
28297;DHT22;62078;49.366;8.172;2022-12-24T06:50:35;17.00;60.40
28297;DHT22;62078;49.366;8.172;2022-12-24T06:53:01;17.00;60.40
28297;DHT22;62078;49.366;8.172;2022-12-24T06:55:26;17.00;60.30
28297;DHT22;62078;49.366;8.172;2022-12-24T06:57:52;17.00;60.20
28297;DHT22;62078;49.366;8.172;2022-12-24T07:00:18;17.10;60.10
28297;DHT22;62078;49.366;8.172;2022-12-24T07:02:46;17.10;60.90
28297;DHT22;62078;49.366;8.172;2022-12-24T07:05:12;17.10;61.60
28297;DHT22;62078;49.366;8.172;2022-12-24T07:07:39;17.00;61.30
28297;DHT22;62078;49.366;8.172;2022-12-24T07:10:07;17.10;61.50
28297;DHT22;62078;49.366;8.172;2022-12-24T07:12:34;17.00;61.60
28297;DHT22;62078;49.366;8.172;2022-12-24T07:15:00;17.00;61.80
28297;DHT22;62078;49.366;8.172;2022-12-24T07:17:26;17.00;61.60
28297;DHT22;62078;49.366;8.172;2022-12-24T07:19:52;17.00;62.00
28297;DHT22;62078;49.366;8.172;2022-12-24T07:22:17;17.00;61.40
28297;DHT22;62078;49.366;8.172;2022-12-24T07:24:43;17.00;60.90
28297;DHT22;62078;49.366;8.172;2022-12-24T07:27:09;17.00;61.30
28297;DHT22;62078;49.366;8.172;2022-12-24T07:29:34;17.00;61.80
28297;DHT22;62078;49.366;8.172;2022-12-24T07:32:00;17.00;61.50
28297;DHT22;62078;49.366;8.172;2022-12-24T07:34:26;17.10;61.50
28297;DHT22;62078;49.366;8.172;2022-12-24T07:36:51;17.00;61.60
28297;DHT22;62078;49.366;8.172;2022-12-24T07:39:17;17.00;61.70
28297;DHT22;62078;49.366;8.172;2022-12-24T07:41:43;17.00;61.70
28297;DHT22;62078;49.366;8.172;2022-12-24T07:44:12;17.00;61.80
28297;DHT22;62078;49.366;8.172;2022-12-24T07:46:38;17.00;62.00
28297;DHT22;62078;49.366;8.172;2022-12-24T07:49:04;17.00;61.80
28297;DHT22;62078;49.366;8.172;2022-12-24T07:51:30;17.00;62.00
28297;DHT22;62078;49.366;8.172;2022-12-24T07:53:56;17.00;62.00
28297;DHT22;62078;49.366;8.172;2022-12-24T07:56:21;17.00;61.90
28297;DHT22;62078;49.366;8.172;2022-12-24T07:58:49;17.00;61.70
28297;DHT22;62078;49.366;8.172;2022-12-24T08:01:46;17.00;61.20
28297;DHT22;62078;49.366;8.172;2022-12-24T08:04:11;17.00;60.90
28297;DHT22;62078;49.366;8.172;2022-12-24T08:06:38;17.00;61.10
28297;DHT22;62078;49.366;8.172;2022-12-24T08:09:03;17.00;60.70
28297;DHT22;62078;49.366;8.172;2022-12-24T08:11:29;17.00;60.90
28297;DHT22;62078;49.366;8.172;2022-12-24T08:13:55;17.00;60.70
28297;DHT22;62078;49.366;8.172;2022-12-24T08:16:21;16.80;58.60
28297;DHT22;62078;49.366;8.172;2022-12-24T08:18:47;16.60;59.70
28297;DHT22;62078;49.366;8.172;2022-12-24T08:21:13;16.60;59.50
28297;DHT22;62078;49.366;8.172;2022-12-24T08:23:39;16.40;59.10
28297;DHT22;62078;49.366;8.172;2022-12-24T08:26:07;16.30;59.70
28297;DHT22;62078;49.366;8.172;2022-12-24T08:28:34;16.30;59.80
28297;DHT22;62078;49.366;8.172;2022-12-24T08:31:00;16.20;59.80
28297;DHT22;62078;49.366;8.172;2022-12-24T08:33:26;16.00;60.00
28297;DHT22;62078;49.366;8.172;2022-12-24T08:35:53;16.00;60.00
28297;DHT22;62078;49.366;8.172;2022-12-24T08:38:20;15.90;60.40
28297;DHT22;62078;49.366;8.172;2022-12-24T08:40:47;15.90;60.20
28297;DHT22;62078;49.366;8.172;2022-12-24T08:43:15;15.90;60.50
28297;DHT22;62078;49.366;8.172;2022-12-24T08:45:41;15.80;60.60
28297;DHT22;62078;49.366;8.172;2022-12-24T08:48:08;15.70;61.10
28297;DHT22;62078;49.366;8.172;2022-12-24T08:50:37;15.80;62.20
28297;DHT22;62078;49.366;8.172;2022-12-24T08:53:03;15.90;61.70
28297;DHT22;62078;49.366;8.172;2022-12-24T08:55:29;16.10;61.00
28297;DHT22;62078;49.366;8.172;2022-12-24T08:57:55;16.10;60.50
28297;DHT22;62078;49.366;8.172;2022-12-24T09:00:21;16.20;60.20
28297;DHT22;62078;49.366;8.172;2022-12-24T09:02:47;16.20;60.10
28297;DHT22;62078;49.366;8.172;2022-12-24T09:05:13;16.20;59.90
28297;DHT22;62078;49.366;8.172;2022-12-24T09:07:39;16.20;59.70
28297;DHT22;62078;49.366;8.172;2022-12-24T09:10:05;16.20;59.70
28297;DHT22;62078;49.366;8.172;2022-12-24T09:12:31;16.20;59.70
28297;DHT22;62078;49.366;8.172;2022-12-24T09:14:57;16.30;59.80
28297;DHT22;62078;49.366;8.172;2022-12-24T09:17:23;16.30;59.80
28297;DHT22;62078;49.366;8.172;2022-12-24T09:19:49;16.30;60.10
28297;DHT22;62078;49.366;8.172;2022-12-24T09:22:16;16.40;59.10
28297;DHT22;62078;49.366;8.172;2022-12-24T09:24:41;16.50;58.90
28297;DHT22;62078;49.366;8.172;2022-12-24T09:27:07;16.50;58.90
28297;DHT22;62078;49.366;8.172;2022-12-24T09:29:33;16.50;58.90
28297;DHT22;62078;49.366;8.172;2022-12-24T09:32:00;16.50;58.90
28297;DHT22;62078;49.366;8.172;2022-12-24T09:34:25;16.50;58.90
28297;DHT22;62078;49.366;8.172;2022-12-24T09:36:51;16.50;59.20
28297;DHT22;62078;49.366;8.172;2022-12-24T09:39:18;16.30;59.30
28297;DHT22;62078;49.366;8.172;2022-12-24T09:47:41;16.40;59.40
28297;DHT22;62078;49.366;8.172;2022-12-24T09:50:37;16.40;59.20
28297;DHT22;62078;49.366;8.172;2022-12-24T09:53:13;16.50;59.30
28297;DHT22;62078;49.366;8.172;2022-12-24T09:55:44;16.50;59.40
28297;DHT22;62078;49.366;8.172;2022-12-24T09:58:24;16.50;59.20
28297;DHT22;62078;49.366;8.172;2022-12-24T10:00:52;16.60;59.50
28297;DHT22;62078;49.366;8.172;2022-12-24T10:03:19;16.60;59.10
28297;DHT22;62078;49.366;8.172;2022-12-24T10:06:00;16.50;59.10
28297;DHT22;62078;49.366;8.172;2022-12-24T10:14:15;16.60;59.30
28297;DHT22;62078;49.366;8.172;2022-12-24T10:19:42;16.60;59.10
28297;DHT22;62078;49.366;8.172;2022-12-24T10:22:34;16.60;59.00
28297;DHT22;62078;49.366;8.172;2022-12-24T10:25:23;16.60;59.00
28297;DHT22;62078;49.366;8.172;2022-12-24T10:27:52;16.60;59.10
28297;DHT22;62078;49.366;8.172;2022-12-24T10:30:21;16.60;59.00
28297;DHT22;62078;49.366;8.172;2022-12-24T10:32:50;16.60;59.00
28297;DHT22;62078;49.366;8.172;2022-12-24T10:35:27;16.60;59.00
28297;DHT22;62078;49.366;8.172;2022-12-24T10:37:54;16.60;59.00
28297;DHT22;62078;49.366;8.172;2022-12-24T10:40:44;16.60;59.00
28297;DHT22;62078;49.366;8.172;2022-12-24T10:43:23;16.60;59.00
28297;DHT22;62078;49.366;8.172;2022-12-24T10:45:52;16.60;59.00
28297;DHT22;62078;49.366;8.172;2022-12-24T10:48:31;16.60;59.10
28297;DHT22;62078;49.366;8.172;2022-12-24T10:51:05;16.60;59.50
28297;DHT22;62078;49.366;8.172;2022-12-24T10:56:22;16.60;59.40
28297;DHT22;62078;49.366;8.172;2022-12-24T10:58:53;16.60;59.40
28297;DHT22;62078;49.366;8.172;2022-12-24T11:01:20;16.70;59.40
28297;DHT22;62078;49.366;8.172;2022-12-24T11:04:09;16.60;59.40
28297;DHT22;62078;49.366;8.172;2022-12-24T11:06:56;16.60;59.40
28297;DHT22;62078;49.366;8.172;2022-12-24T11:09:30;16.70;59.60
28297;DHT22;62078;49.366;8.172;2022-12-24T11:11:58;16.70;59.70
28297;DHT22;62078;49.366;8.172;2022-12-24T11:14:27;16.70;59.60
28297;DHT22;62078;49.366;8.172;2022-12-24T11:16:57;16.80;59.70
28297;DHT22;62078;49.366;8.172;2022-12-24T11:19:31;16.80;59.80
28297;DHT22;62078;49.366;8.172;2022-12-24T11:22:04;16.80;59.60
28297;DHT22;62078;49.366;8.172;2022-12-24T11:24:35;16.70;59.40
28297;DHT22;62078;49.366;8.172;2022-12-24T11:32:48;16.80;59.40
28297;DHT22;62078;49.366;8.172;2022-12-24T11:35:19;16.90;59.50
28297;DHT22;62078;49.366;8.172;2022-12-24T11:38:11;16.80;59.40
28297;DHT22;62078;49.366;8.172;2022-12-24T11:40:44;16.90;59.50
28297;DHT22;62078;49.366;8.172;2022-12-24T11:43:19;16.90;59.50
28297;DHT22;62078;49.366;8.172;2022-12-24T11:45:51;16.90;59.50
28297;DHT22;62078;49.366;8.172;2022-12-24T11:48:28;16.90;59.50
28297;DHT22;62078;49.366;8.172;2022-12-24T11:51:02;16.90;60.10
28297;DHT22;62078;49.366;8.172;2022-12-24T11:53:43;16.90;59.40
28297;DHT22;62078;49.366;8.172;2022-12-24T11:59:00;16.90;59.40
28297;DHT22;62078;49.366;8.172;2022-12-24T12:01:36;17.00;59.50
28297;DHT22;62078;49.366;8.172;2022-12-24T12:04:12;17.00;59.50
28297;DHT22;62078;49.366;8.172;2022-12-24T12:06:48;17.00;59.50
28297;DHT22;62078;49.366;8.172;2022-12-24T12:09:30;17.00;59.50
28297;DHT22;62078;49.366;8.172;2022-12-24T12:12:30;17.00;59.50
28297;DHT22;62078;49.366;8.172;2022-12-24T12:15:05;17.00;59.50
28297;DHT22;62078;49.366;8.172;2022-12-24T12:20:17;17.00;59.50
28297;DHT22;62078;49.366;8.172;2022-12-24T12:25:43;17.10;59.60
28297;DHT22;62078;49.366;8.172;2022-12-24T12:28:30;17.00;59.60
28297;DHT22;62078;49.366;8.172;2022-12-24T12:31:22;17.10;59.70
28297;DHT22;62078;49.366;8.172;2022-12-24T12:36:35;17.10;59.60
28297;DHT22;62078;49.366;8.172;2022-12-24T12:39:02;17.10;59.70
28297;DHT22;62078;49.366;8.172;2022-12-24T12:57:56;17.10;59.70
28297;DHT22;62078;49.366;8.172;2022-12-24T13:00:25;17.10;59.70
28297;DHT22;62078;49.366;8.172;2022-12-24T13:03:33;17.10;59.70
28297;DHT22;62078;49.366;8.172;2022-12-24T13:06:30;17.10;59.70
28297;DHT22;62078;49.366;8.172;2022-12-24T13:12:14;17.10;59.70
28297;DHT22;62078;49.366;8.172;2022-12-24T13:15:18;17.20;59.70
28297;DHT22;62078;49.366;8.172;2022-12-24T13:18:04;17.20;59.70
28297;DHT22;62078;49.366;8.172;2022-12-24T13:20:40;17.20;59.70
28297;DHT22;62078;49.366;8.172;2022-12-24T13:23:21;17.20;59.70
28297;DHT22;62078;49.366;8.172;2022-12-24T13:25:52;17.20;59.70
28297;DHT22;62078;49.366;8.172;2022-12-24T13:30:50;17.20;59.70
28297;DHT22;62078;49.366;8.172;2022-12-24T13:36:15;17.20;59.70
28297;DHT22;62078;49.366;8.172;2022-12-24T13:49:36;17.20;59.70
28297;DHT22;62078;49.366;8.172;2022-12-24T13:54:58;17.20;59.80
28297;DHT22;62078;49.366;8.172;2022-12-24T14:02:52;17.30;59.80
28297;DHT22;62078;49.366;8.172;2022-12-24T14:05:48;17.30;59.80
28297;DHT22;62078;49.366;8.172;2022-12-24T14:08:28;17.20;59.80
28297;DHT22;62078;49.366;8.172;2022-12-24T14:11:16;17.30;59.70
28297;DHT22;62078;49.366;8.172;2022-12-24T14:16:17;17.30;59.70
28297;DHT22;62078;49.366;8.172;2022-12-24T14:19:02;17.30;59.70
28297;DHT22;62078;49.366;8.172;2022-12-24T14:21:35;17.30;59.80
28297;DHT22;62078;49.366;8.172;2022-12-24T14:24:14;17.30;59.70
28297;DHT22;62078;49.366;8.172;2022-12-24T14:26:48;17.30;59.80
28297;DHT22;62078;49.366;8.172;2022-12-24T14:29:31;17.30;59.80
28297;DHT22;62078;49.366;8.172;2022-12-24T14:31:59;17.30;59.80
28297;DHT22;62078;49.366;8.172;2022-12-24T14:34:29;17.30;59.70
28297;DHT22;62078;49.366;8.172;2022-12-24T14:36:55;17.30;59.80
28297;DHT22;62078;49.366;8.172;2022-12-24T14:39:30;17.30;59.80
28297;DHT22;62078;49.366;8.172;2022-12-24T14:42:16;17.30;59.70
28297;DHT22;62078;49.366;8.172;2022-12-24T14:45:36;17.40;59.80
28297;DHT22;62078;49.366;8.172;2022-12-24T14:55:48;17.30;59.70
28297;DHT22;62078;49.366;8.172;2022-12-24T14:58:30;17.40;59.80
28297;DHT22;62078;49.366;8.172;2022-12-24T15:01:21;17.40;59.80
28297;DHT22;62078;49.366;8.172;2022-12-24T15:06:42;17.40;59.80
28297;DHT22;62078;49.366;8.172;2022-12-24T15:09:27;17.40;59.80
28297;DHT22;62078;49.366;8.172;2022-12-24T15:11:59;17.40;59.80
28297;DHT22;62078;49.366;8.172;2022-12-24T15:14:40;17.40;59.90
28297;DHT22;62078;49.366;8.172;2022-12-24T15:17:08;17.40;59.90
28297;DHT22;62078;49.366;8.172;2022-12-24T15:19:39;17.40;59.80
28297;DHT22;62078;49.366;8.172;2022-12-24T15:22:09;17.40;59.80
28297;DHT22;62078;49.366;8.172;2022-12-24T15:24:43;17.40;59.80
28297;DHT22;62078;49.366;8.172;2022-12-24T15:27:16;17.40;59.80
28297;DHT22;62078;49.366;8.172;2022-12-24T15:29:44;17.40;59.80
28297;DHT22;62078;49.366;8.172;2022-12-24T15:32:13;17.40;59.80
28297;DHT22;62078;49.366;8.172;2022-12-24T15:34:44;17.40;59.80
28297;DHT22;62078;49.366;8.172;2022-12-24T15:37:15;17.50;59.90
28297;DHT22;62078;49.366;8.172;2022-12-24T15:39:43;17.40;59.80
28297;DHT22;62078;49.366;8.172;2022-12-24T15:42:16;17.40;59.80
28297;DHT22;62078;49.366;8.172;2022-12-24T15:47:32;17.40;59.80
28297;DHT22;62078;49.366;8.172;2022-12-24T15:50:04;17.40;59.80
28297;DHT22;62078;49.366;8.172;2022-12-24T15:52:39;17.40;59.90
28297;DHT22;62078;49.366;8.172;2022-12-24T15:55:33;17.40;59.80
28297;DHT22;62078;49.366;8.172;2022-12-24T15:58:00;17.50;59.90
28297;DHT22;62078;49.366;8.172;2022-12-24T16:00:29;17.50;59.80
28297;DHT22;62078;49.366;8.172;2022-12-24T16:03:20;17.40;59.80
28297;DHT22;62078;49.366;8.172;2022-12-24T16:06:00;17.50;59.90
28297;DHT22;62078;49.366;8.172;2022-12-24T16:08:31;17.50;59.80
28297;DHT22;62078;49.366;8.172;2022-12-24T16:11:24;17.50;59.80
28297;DHT22;62078;49.366;8.172;2022-12-24T16:14:01;17.50;59.80
28297;DHT22;62078;49.366;8.172;2022-12-24T16:16:41;17.50;59.80
28297;DHT22;62078;49.366;8.172;2022-12-24T16:19:25;17.50;59.80
28297;DHT22;62078;49.366;8.172;2022-12-24T16:21:57;17.50;59.80
28297;DHT22;62078;49.366;8.172;2022-12-24T16:24:28;17.50;59.80
28297;DHT22;62078;49.366;8.172;2022-12-24T16:26:56;17.50;59.90
28297;DHT22;62078;49.366;8.172;2022-12-24T16:29:22;17.60;60.60
28297;DHT22;62078;49.366;8.172;2022-12-24T16:31:57;17.70;61.20
28297;DHT22;62078;49.366;8.172;2022-12-24T16:34:25;17.70;60.80
28297;DHT22;62078;49.366;8.172;2022-12-24T16:36:52;17.70;60.90
28297;DHT22;62078;49.366;8.172;2022-12-24T16:39:28;17.70;61.10
28297;DHT22;62078;49.366;8.172;2022-12-24T16:41:57;17.70;61.10
28297;DHT22;62078;49.366;8.172;2022-12-24T16:44:42;17.70;61.10
28297;DHT22;62078;49.366;8.172;2022-12-24T16:47:12;17.60;61.10
28297;DHT22;62078;49.366;8.172;2022-12-24T16:49:39;17.70;61.20
28297;DHT22;62078;49.366;8.172;2022-12-24T16:52:05;17.70;61.20
28297;DHT22;62078;49.366;8.172;2022-12-24T16:54:32;17.60;61.00
